Home > Products > Valid Products > TAF

000
FTUS44 KMOB 251700
TAFMOB
TAF
KMOB 251735Z 2518/2618 VRB06KT P6SM VCTS SCT030CB SCT080 BKN090
      TEMPO 2519/2523 VRB25KT 2SM TSRA BKN025CB
     FM260200 VRB03KT P6SM FEW030 SCT250=



000
FTUS44 KMOB 251700
TAFMOB
TAF
KMOB 251735Z 2518/2618 VRB06KT P6SM VCTS SCT030CB SCT080 BKN090
      TEMPO 2519/2523 VRB25KT 2SM TSRA BKN025CB
     FM260200 VRB03KT P6SM FEW030 SCT250=



000
FTUS44 KMOB 251700
TAFPNS
TAF
KPNS 251735Z 2518/2618 26008KT P6SM VCTS BKN035CB BKN045
      TEMPO 2519/2523 VRB25KT 2SM TSRA BKN025CB
     FM260200 VRB03KT P6SM SCT030 SCT250=



000
FTUS44 KMOB 251700
TAFPNS
TAF
KPNS 251735Z 2518/2618 26008KT P6SM VCTS BKN035CB BKN045
      TEMPO 2519/2523 VRB25KT 2SM TSRA BKN025CB
     FM260200 VRB03KT P6SM SCT030 SCT250=



000
FTUS44 KMOB 251100 RRA
TAFMOB
TAF
KMOB 251156Z 2512/2612 00000KT P6SM FEW018 SCT250
     FM251700 23007KT P6SM VCTS SCT035CB
     FM260100 VRB03KT P6SM SKC=



000
FTUS44 KMOB 251100 RRA
TAFMOB
TAF
KMOB 251156Z 2512/2612 00000KT P6SM FEW018 SCT250
     FM251700 23007KT P6SM VCTS SCT035CB
     FM260100 VRB03KT P6SM SKC=



000
FTUS44 KMOB 251100 RRA
TAFPNS
TAF
KPNS 251156Z 2512/2612 36004KT P6SM FEW025
     FM251700 22008KT P6SM VCTS SCT035CB
     FM260100 VRB03KT P6SM SKC=



000
FTUS44 KMOB 251100 RRA
TAFPNS
TAF
KPNS 251156Z 2512/2612 36004KT P6SM FEW025
     FM251700 22008KT P6SM VCTS SCT035CB
     FM260100 VRB03KT P6SM SKC=



000
FTUS44 KMOB 250500
TAFMOB
TAF
KMOB 250523Z 2506/2606 00000KT P6SM SKC
     FM251000 19002KT P6SM VCSH SCT025
     FM251600 23007KT P6SM VCTS SCT035CB PROB30 2518/2522 3SM TSRA
      BKN035CB=



000
FTUS44 KMOB 250500
TAFPNS
TAF
KPNS 250523Z 2506/2606 20006KT P6SM FEW025 SCT250
     FM251000 24004KT P6SM VCSH SCT025
     FM251600 22008KT P6SM VCTS SCT035CB PROB30 2518/2522 3SM TSRA
      BKN035CB=



000
FTUS44 KMOB 250500
TAFMOB
TAF
KMOB 250523Z 2506/2606 00000KT P6SM SKC
     FM251000 19002KT P6SM VCSH SCT025
     FM251600 23007KT P6SM VCTS SCT035CB PROB30 2518/2522 3SM TSRA
      BKN035CB=



000
FTUS44 KMOB 250500
TAFPNS
TAF
KPNS 250523Z 2506/2606 20006KT P6SM FEW025 SCT250
     FM251000 24004KT P6SM VCSH SCT025
     FM251600 22008KT P6SM VCTS SCT035CB PROB30 2518/2522 3SM TSRA
      BKN035CB=



000
FTUS44 KMOB 242300
TAFMOB
TAF
KMOB 242327Z 2500/2524 22007KT P6SM FEW030 SCT250
     FM251000 23002KT P6SM VCSH SCT025
     FM251600 23007KT P6SM VCTS SCT035CB PROB30 2518/2522 3SM TSRA
      BKN035CB=



000
FTUS44 KMOB 242300
TAFPNS
TAF
KPNS 242327Z 2500/2524 21008KT P6SM SCT030 BKN250
     FM251000 25004KT P6SM VCSH SCT025
     FM251600 22008KT P6SM VCTS SCT035CB PROB30 2518/2522 3SM TSRA
      BKN035CB=



000
FTUS44 KMOB 242200 AAA
TAFPNS
TAF AMD
KPNS 242209Z 2422/2518 19012KT P6SM VCSH SCT045 BKN250
     FM250100 22006KT P6SM SCT030 SCT250
     FM250900 23002KT P6SM OVC050 PROB30 2510/2515 P6SM SHRA OVC025=



000
FTUS44 KMOB 242200 AAA
TAFPNS
TAF AMD
KPNS 242209Z 2422/2518 19012KT P6SM VCSH SCT045 BKN250
     FM250100 22006KT P6SM SCT030 SCT250
     FM250900 23002KT P6SM OVC050 PROB30 2510/2515 P6SM SHRA OVC025=



000
FTUS44 KMOB 241800 AAA
TAFMOB
TAF AMD
KMOB 241841Z 2419/2518 14007KT P6SM VCTS FEW035CB SCT070 BKN150
      TEMPO 2419/2420 VRB25KT 2SM TSRA BKN020CB
     FM242000 22005KT P6SM VCTS BKN040CB BKN250
     FM250300 22003KT P6SM SCT030 SCT250
     FM250900 23002KT P6SM OVC050 PROB30 2512/2517 P6SM SHRA OVC025=



000
FTUS44 KMOB 241800 AAA
TAFMOB
TAF AMD
KMOB 241841Z 2419/2518 14007KT P6SM VCTS FEW035CB SCT070 BKN150
      TEMPO 2419/2420 VRB25KT 2SM TSRA BKN020CB
     FM242000 22005KT P6SM VCTS BKN040CB BKN250
     FM250300 22003KT P6SM SCT030 SCT250
     FM250900 23002KT P6SM OVC050 PROB30 2512/2517 P6SM SHRA OVC025=



000
FTUS44 KMOB 241700
TAFMOB
TAF
KMOB 241732Z 2418/2518 29010G17KT 2SM +RA BR VCTS BKN030CB BKN150
      TEMPO 2418/2420 VRB25KT 2SM TSRA BKN020CB
     FM242000 22005KT P6SM VCTS BKN040CB BKN250
     FM250300 22003KT P6SM SCT030 SCT250
     FM250900 23002KT P6SM OVC050 PROB30 2512/2517 P6SM SHRA OVC025=



000
FTUS44 KMOB 241700
TAFPNS
TAF
KPNS 241732Z 2418/2518 15004KT P6SM VCTS SCT030CB SCT110
     FM250300 23006KT P6SM SCT030 SCT250
     FM250900 23002KT P6SM OVC050 PROB30 2510/2515 P6SM SHRA OVC025=



000
FTUS44 KMOB 241700
TAFMOB
TAF
KMOB 241732Z 2418/2518 29010G17KT 2SM +RA BR VCTS BKN030CB BKN150
      TEMPO 2418/2420 VRB25KT 2SM TSRA BKN020CB
     FM242000 22005KT P6SM VCTS BKN040CB BKN250
     FM250300 22003KT P6SM SCT030 SCT250
     FM250900 23002KT P6SM OVC050 PROB30 2512/2517 P6SM SHRA OVC025=



000
FTUS44 KMOB 241700
TAFPNS
TAF
KPNS 241732Z 2418/2518 15004KT P6SM VCTS SCT030CB SCT110
     FM250300 23006KT P6SM SCT030 SCT250
     FM250900 23002KT P6SM OVC050 PROB30 2510/2515 P6SM SHRA OVC025=



000
FTUS44 KMOB 241700 AAA
TAFMOB
TAF AMD
KMOB 241725Z 2417/2512 29010G17KT 2SM +RA BR VCTS BKN030CB BKN150
      TEMPO 2417/2420 VRB25KT 2SM TSRA BKN020CB
     FM242000 22005KT P6SM VCTS BKN040CB BKN250
     FM250200 22003KT P6SM SCT250=



000
FTUS44 KMOB 241700 AAA
TAFMOB
TAF AMD
KMOB 241725Z 2417/2512 29010G17KT 2SM +RA BR VCTS BKN030CB BKN150
      TEMPO 2417/2420 VRB25KT 2SM TSRA BKN020CB
     FM242000 22005KT P6SM VCTS BKN040CB BKN250
     FM250200 22003KT P6SM SCT250=



000
FTUS44 KMOB 241600 AAA
TAFMOB
TAF AMD
KMOB 241618Z 2416/2512 18005KT P6SM VCTS SCT025CB BKN150 BKN250
      TEMPO 2416/2420 VRB25KT 2SM TSRA BKN020CB
     FM242000 22005KT P6SM VCTS BKN040CB BKN250
     FM250200 22003KT P6SM SCT250=



000
FTUS44 KMOB 241600 AAA
TAFMOB
TAF AMD
KMOB 241618Z 2416/2512 18005KT P6SM VCTS SCT025CB BKN150 BKN250
      TEMPO 2416/2420 VRB25KT 2SM TSRA BKN020CB
     FM242000 22005KT P6SM VCTS BKN040CB BKN250
     FM250200 22003KT P6SM SCT250=



000
FTUS44 KMOB 241600 AAA
TAFPNS
TAF AMD
KPNS 241616Z 2416/2512 27013G18KT 1 1/2SM +RA BR SCT021 BKN040
      BKN050
     FM241800 22008KT P6SM VCTS BKN040CB BKN250
     FM250000 23006KT P6SM SCT250=



000
FTUS44 KMOB 241600 AAA
TAFPNS
TAF AMD
KPNS 241616Z 2416/2512 27013G18KT 1 1/2SM +RA BR SCT021 BKN040
      BKN050
     FM241800 22008KT P6SM VCTS BKN040CB BKN250
     FM250000 23006KT P6SM SCT250=



000
FTUS44 KMOB 241100 RRA
TAFMOB
TAF
KMOB 241157Z 2412/2512 00000KT 6SM BR FEW030 SCT250
     FM241400 23004KT P6SM SCT050 BKN250
     FM241800 22005KT P6SM VCTS BKN040CB BKN250
     FM250200 22003KT P6SM SCT250=



000
FTUS44 KMOB 241100 RRA
TAFPNS
TAF
KPNS 241157Z 2412/2512 00000KT P6SM SCT250
     FM241400 22007KT P6SM SCT050 BKN250
     FM241800 22008KT P6SM VCTS BKN040CB BKN250
     FM250000 23006KT P6SM SCT250=



000
FTUS44 KMOB 240500 RRA
TAFMOB
TAF
KMOB 240541Z 2406/2506 22003KT P6SM SKC
     FM241400 23005KT P6SM VCTS SCT050CB OVC100=



000
FTUS44 KMOB 240500 RRA
TAFPNS
TAF
KPNS 240541Z 2406/2506 25004KT P6SM SKC
     FM241400 22007KT P6SM VCTS SCT050CB OVC100=



000
FTUS44 KMOB 240500 RRA
TAFMOB
TAF
KMOB 240541Z 2406/2506 22003KT P6SM SKC
     FM241400 23005KT P6SM VCTS SCT050CB OVC100=



000
FTUS44 KMOB 240500 RRA
TAFPNS
TAF
KPNS 240541Z 2406/2506 25004KT P6SM SKC
     FM241400 22007KT P6SM VCTS SCT050CB OVC100=



000
FTUS44 KMOB 232300
TAFMOB
TAF
KMOB 232334Z 2400/2424 15007KT P6SM FEW025
     FM241500 23005KT P6SM VCTS SCT050CB OVC100=



000
FTUS44 KMOB 232300
TAFPNS
TAF
KPNS 232334Z 2400/2424 17008KT P6SM FEW025
     FM241500 22007KT P6SM VCTS SCT050CB OVC100=



000
FTUS44 KMOB 232300
TAFPNS
TAF
KPNS 232334Z 2400/2424 17008KT P6SM FEW025
     FM241500 22007KT P6SM VCTS SCT050CB OVC100=



000
FTUS44 KMOB 232300
TAFMOB
TAF
KMOB 232334Z 2400/2424 15007KT P6SM FEW025
     FM241500 23005KT P6SM VCTS SCT050CB OVC100=



000
FTUS44 KMOB 232100 AAA
TAFPNS
TAF AMD
KPNS 232132Z 2322/2418 23006KT P6SM SKC
     FM240200 VRB03KT P6SM SCT030=



000
FTUS44 KMOB 232100 AAA
TAFPNS
TAF AMD
KPNS 232132Z 2322/2418 23006KT P6SM SKC
     FM240200 VRB03KT P6SM SCT030=



000
FTUS44 KMOB 232100 AAA
TAFMOB
TAF AMD
KMOB 232130Z 2322/2418 18005KT P6SM SCT020 OVC150
     FM240200 VRB03KT P6SM BKN030=



000
FTUS44 KMOB 232100 AAA
TAFMOB
TAF AMD
KMOB 232130Z 2322/2418 18005KT P6SM SCT020 OVC150
     FM240200 VRB03KT P6SM BKN030=



000
FTUS44 KMOB 231700
TAFPNS
TAF
KPNS 231734Z 2318/2418 14007KT P6SM VCTS SCT050CB
      TEMPO 2320/2324 5SM TSRA BKN030CB OVC100
     FM240200 VRB03KT P6SM VCTS BKN030CB BKN250=



000
FTUS44 KMOB 231700
TAFMOB
TAF
KMOB 231734Z 2318/2418 15006KT P6SM VCTS SCT020CB SCT050 OVC250
      TEMPO 2320/2324 5SM TSRA BKN030CB OVC100
     FM240200 VRB03KT P6SM VCTS BKN030CB BKN250=



000
FTUS44 KMOB 231700
TAFPNS
TAF
KPNS 231734Z 2318/2418 14007KT P6SM VCTS SCT050CB
      TEMPO 2320/2324 5SM TSRA BKN030CB OVC100
     FM240200 VRB03KT P6SM VCTS BKN030CB BKN250=



000
FTUS44 KMOB 231700
TAFMOB
TAF
KMOB 231734Z 2318/2418 15006KT P6SM VCTS SCT020CB SCT050 OVC250
      TEMPO 2320/2324 5SM TSRA BKN030CB OVC100
     FM240200 VRB03KT P6SM VCTS BKN030CB BKN250=



000
FTUS44 KMOB 231100 RRA
TAFPNS
TAF
KPNS 231154Z 2312/2412 05004KT P6SM SCT250
     FM231500 13006KT P6SM SCT030 SCT250
     FM231800 18008KT P6SM VCTS BKN030CB BKN250
     FM240200 22005KT P6SM FEW250=



000
FTUS44 KMOB 231100 RRA
TAFMOB
TAF
KMOB 231154Z 2312/2412 01004KT 4SM BR FEW060 SCT250
     FM231500 13006KT P6SM SCT030 SCT250
     FM231800 18008KT P6SM VCTS BKN030CB BKN250
      TEMPO 2320/2324 P6SM TS BKN030CB=



000
FTUS44 KMOB 231100 RRA
TAFPNS
TAF
KPNS 231154Z 2312/2412 05004KT P6SM SCT250
     FM231500 13006KT P6SM SCT030 SCT250
     FM231800 18008KT P6SM VCTS BKN030CB BKN250
     FM240200 22005KT P6SM FEW250=



000
FTUS44 KMOB 231100 RRA
TAFMOB
TAF
KMOB 231154Z 2312/2412 01004KT 4SM BR FEW060 SCT250
     FM231500 13006KT P6SM SCT030 SCT250
     FM231800 18008KT P6SM VCTS BKN030CB BKN250
      TEMPO 2320/2324 P6SM TS BKN030CB=



000
FTUS44 KMOB 230500 RRA
TAFPNS
TAF
KPNS 230543Z 2306/2406 VRB03KT P6SM FEW250
     FM231500 13006KT P6SM SCT030 SCT250 PROB30 2315/2318 P6SM TS
      BKN030CB=



000
FTUS44 KMOB 230500 RRA
TAFMOB
TAF
KMOB 230543Z 2306/2406 VRB03KT P6SM SCT100
     FM231500 13006KT P6SM SCT030 SCT250 PROB30 2315/2318 P6SM TS
      BKN030CB=



000
FTUS44 KMOB 230500 RRA
TAFPNS
TAF
KPNS 230543Z 2306/2406 VRB03KT P6SM FEW250
     FM231500 13006KT P6SM SCT030 SCT250 PROB30 2315/2318 P6SM TS
      BKN030CB=



000
FTUS44 KMOB 230500 RRA
TAFMOB
TAF
KMOB 230543Z 2306/2406 VRB03KT P6SM SCT100
     FM231500 13006KT P6SM SCT030 SCT250 PROB30 2315/2318 P6SM TS
      BKN030CB=



000
FTUS44 KMOB 222300
TAFPNS
TAF
KPNS 222323Z 2300/2324 00000KT P6SM FEW030
     FM231500 13006KT P6SM SCT030 SCT250 PROB30 2315/2318 P6SM TS
      BKN030CB=



000
FTUS44 KMOB 222300
TAFMOB
TAF
KMOB 222323Z 2300/2324 26004KT P6SM FEW040
     FM231500 13006KT P6SM SCT030 SCT250 PROB30 2315/2318 P6SM TS
      BKN030CB=



000
FTUS44 KMOB 222300
TAFMOB
TAF
KMOB 222323Z 2300/2324 26004KT P6SM FEW040
     FM231500 13006KT P6SM SCT030 SCT250 PROB30 2315/2318 P6SM TS
      BKN030CB=



000
FTUS44 KMOB 222300
TAFPNS
TAF
KPNS 222323Z 2300/2324 00000KT P6SM FEW030
     FM231500 13006KT P6SM SCT030 SCT250 PROB30 2315/2318 P6SM TS
      BKN030CB=



000
FTUS44 KMOB 222200 AAC
TAFMOB
TAF AMD
KMOB 222235Z 2223/2318 28006KT P6SM VCTS SCT030CB
     FM230100 VRB03KT P6SM SCT030 SCT250
     FM231500 13006KT P6SM SCT030 SCT250 PROB30 2315/2318 P6SM TS
      BKN030CB=



000
FTUS44 KMOB 222200 AAC
TAFMOB
TAF AMD
KMOB 222235Z 2223/2318 28006KT P6SM VCTS SCT030CB
     FM230100 VRB03KT P6SM SCT030 SCT250
     FM231500 13006KT P6SM SCT030 SCT250 PROB30 2315/2318 P6SM TS
      BKN030CB=



000
FTUS44 KMOB 221900 AAB
TAFMOB
TAF AMD
KMOB 221953Z 2220/2318 VRB03KT P6SM VCTS SCT018CB SCT110 BKN250
      TEMPO 2220/2221 VRB15G25KT 3SM -TSRA BR SCT015 BKN025CB OVC035
     FM222100 17008KT P6SM VCTS SCT025CB BKN050 OVC250
      TEMPO 2221/2224 3SM -TSRA BR BKN025CB OVC035
     FM230100 VRB03KT P6SM SCT030 SCT250
     FM231500 13006KT P6SM SCT030 SCT250 PROB30 2315/2318 P6SM TS
      BKN030CB=



000
FTUS44 KMOB 221800 AAA
TAFMOB
TAF AMD
KMOB 221847Z 2219/2318 14020G35KT 1/4SM +TSRA FG VCTS BKN020CB
      OVC035
     FM221900 14015KT P6SM VCTS BKN025CB OVC050
      TEMPO 2219/2221 VRB15G25KT 1SM TSRA BR BKN025CB OVC035
     FM222100 17008KT P6SM VCTS SCT025CB BKN050 OVC250
      TEMPO 2221/2224 3SM -TSRA BR BKN025CB OVC035
     FM230100 VRB03KT P6SM SCT030 SCT250
     FM231500 13006KT P6SM SCT030 SCT250 PROB30 2315/2318 P6SM TS
      BKN030CB=



000
FTUS44 KMOB 221800 AAA
TAFMOB
TAF AMD
KMOB 221847Z 2219/2318 14020G35KT 1/4SM +TSRA FG VCTS BKN020CB
      OVC035
     FM221900 14015KT P6SM VCTS BKN025CB OVC050
      TEMPO 2219/2221 VRB15G25KT 1SM TSRA BR BKN025CB OVC035
     FM222100 17008KT P6SM VCTS SCT025CB BKN050 OVC250
      TEMPO 2221/2224 3SM -TSRA BR BKN025CB OVC035
     FM230100 VRB03KT P6SM SCT030 SCT250
     FM231500 13006KT P6SM SCT030 SCT250 PROB30 2315/2318 P6SM TS
      BKN030CB=



    US Dept of Commerce
    National Oceanic and Atmospheric Administration
    National Weather Service
    1325 East West Highway
    Silver Spring, MD 20910
    Page Author: NWS Internet Services Team
Disclaimer
Information Quality
Credits
Glossary
Privacy Policy
Freedom of Information Act (FOIA)
About Us
Career Opportunities